createdAt,value
2023-04-01T00:01:27.489Z,11.76
2023-04-01T00:03:55.443Z,11.32
2023-04-01T00:06:22.195Z,11.50
2023-04-01T00:08:48.888Z,12.08
2023-04-01T00:11:16.789Z,12.75
2023-04-01T00:13:44.317Z,13.11
2023-04-01T00:16:21.135Z,13.01
2023-04-01T00:18:50.869Z,12.85
2023-04-01T00:21:17.839Z,12.15
2023-04-01T00:23:44.789Z,11.62
2023-04-01T00:26:13.192Z,11.74
2023-04-01T00:28:41.149Z,12.74
2023-04-01T00:31:10.540Z,12.43
2023-04-01T00:33:37.834Z,12.01
2023-04-01T00:36:12.560Z,12.18
2023-04-01T00:38:40.030Z,12.41
2023-04-01T00:41:07.546Z,12.04
2023-04-01T00:43:35.008Z,12.11
2023-04-01T00:46:02.256Z,12.46
2023-04-01T00:48:34.421Z,12.36
2023-04-01T00:51:12.418Z,12.52
2023-04-01T00:53:43.821Z,13.54
2023-04-01T00:56:23.566Z,14.93
2023-04-01T00:58:57.503Z,14.94
2023-04-01T01:01:26.708Z,14.02
2023-04-01T01:03:53.639Z,12.63
2023-04-01T01:06:32.505Z,12.66
2023-04-01T01:09:22.753Z,11.67
2023-04-01T01:12:11.323Z,12.37
2023-04-01T01:15:05.785Z,12.22
2023-04-01T01:17:59.708Z,12.64
2023-04-01T01:20:51.192Z,12.96
2023-04-01T01:23:42.591Z,13.06
2023-04-01T01:26:46.829Z,13.35
2023-04-01T01:29:13.358Z,12.36
2023-04-01T01:32:04.826Z,12.90
2023-04-01T01:34:57.632Z,13.05
2023-04-01T01:37:28.694Z,13.04
2023-04-01T01:40:05.099Z,12.24
2023-04-01T01:42:36.310Z,10.79
2023-04-01T01:45:06.021Z,9.61
2023-04-01T01:47:36.543Z,8.08
2023-04-01T01:50:06.441Z,7.11
2023-04-01T01:52:34.143Z,7.21
2023-04-01T01:55:00.843Z,6.98
2023-04-01T01:57:33.371Z,6.55
2023-04-01T02:00:13.818Z,5.89
2023-04-01T02:02:42.300Z,5.37
2023-04-01T02:05:15.631Z,5.29
2023-04-01T02:07:49.260Z,5.08
2023-04-01T02:10:16.362Z,4.75
2023-04-01T02:12:48.580Z,4.90
2023-04-01T02:15:17.936Z,4.77
2023-04-01T02:17:47.566Z,4.92
2023-04-01T02:20:18.628Z,4.68
2023-04-01T02:22:52.902Z,4.49
2023-04-01T02:25:26.013Z,4.02
2023-04-01T02:27:54.781Z,3.65
2023-04-01T02:30:22.412Z,3.74
2023-04-01T02:32:50.586Z,4.17
2023-04-01T02:35:18.998Z,4.30
2023-04-01T02:37:50.524Z,4.69
2023-04-01T02:40:18.336Z,4.87
2023-04-01T02:42:45.736Z,4.54
2023-04-01T02:45:13.368Z,4.69
2023-04-01T02:47:40.057Z,5.18
2023-04-01T02:50:07.477Z,5.28
2023-04-01T02:52:34.460Z,5.28
2023-04-01T02:55:01.089Z,5.44
2023-04-01T02:57:28.201Z,5.72
2023-04-01T02:59:54.954Z,5.38
2023-04-01T03:02:22.118Z,5.83
2023-04-01T03:04:48.720Z,5.10
2023-04-01T03:07:15.947Z,4.93
2023-04-01T03:09:42.626Z,5.19
2023-04-01T03:12:09.275Z,4.86
2023-04-01T03:14:35.895Z,4.66
2023-04-01T03:17:04.079Z,4.55
2023-04-01T03:19:31.135Z,4.32
2023-04-01T03:21:57.784Z,3.90
2023-04-01T03:24:24.413Z,3.68
2023-04-01T03:26:51.338Z,3.59
2023-04-01T03:29:17.978Z,3.62
2023-04-01T03:31:44.690Z,3.46
2023-04-01T03:34:11.443Z,3.62
2023-04-01T03:36:38.553Z,3.73
2023-04-01T03:39:06.079Z,4.11
2023-04-01T03:41:33.053Z,4.63
2023-04-01T03:43:59.734Z,5.17
2023-04-01T03:46:26.495Z,5.66
2023-04-01T03:48:53.539Z,5.25
2023-04-01T03:51:20.697Z,5.79
2023-04-01T03:53:47.407Z,7.06
2023-04-01T03:56:14.074Z,7.29
2023-04-01T03:58:40.693Z,7.15
2023-04-01T04:01:19.883Z,7.90
2023-04-01T04:03:46.929Z,8.12
2023-04-01T04:06:15.065Z,9.25
2023-04-01T04:08:42.154Z,9.61
2023-04-01T04:11:09.522Z,9.63
2023-04-01T04:13:36.990Z,9.63
2023-04-01T04:16:04.587Z,9.88
2023-04-01T04:18:31.227Z,10.01
2023-04-01T04:20:57.981Z,10.08
2023-04-01T04:23:26.802Z,9.46
2023-04-01T04:26:02.538Z,8.72
2023-04-01T04:28:30.340Z,7.94
2023-04-01T04:30:57.090Z,7.77
2023-04-01T04:33:24.147Z,7.31
2023-04-01T04:35:50.881Z,6.89
2023-04-01T04:38:18.385Z,7.08
2023-04-01T04:40:45.295Z,7.19
2023-04-01T04:43:14.434Z,7.63
2023-04-01T04:45:41.579Z,7.66
2023-04-01T04:48:19.408Z,7.39
2023-04-01T04:50:47.469Z,7.52
2023-04-01T04:53:14.881Z,7.42
2023-04-01T04:55:46.265Z,7.75
2023-04-01T04:58:13.076Z,8.00
2023-04-01T05:00:39.682Z,7.92
2023-04-01T05:03:06.803Z,7.52
2023-04-01T05:05:35.175Z,6.78
2023-04-01T05:08:02.370Z,6.30
2023-04-01T05:10:29.082Z,6.47
2023-04-01T05:12:55.882Z,6.31
2023-04-01T05:15:23.020Z,6.26
2023-04-01T05:17:49.671Z,6.36
2023-04-01T05:20:17.073Z,6.53
2023-04-01T05:22:44.655Z,6.79
2023-04-01T05:25:11.247Z,7.23
2023-04-01T05:27:37.863Z,7.28
2023-04-01T05:30:07.798Z,7.22
2023-04-01T05:32:34.443Z,7.39
2023-04-01T05:35:01.063Z,7.53
2023-04-01T05:37:27.653Z,7.86
2023-04-01T05:39:54.269Z,7.68
2023-04-01T05:42:20.881Z,7.64
2023-04-01T05:44:47.494Z,7.33
2023-04-01T05:47:14.117Z,7.15
2023-04-01T05:49:40.856Z,6.67
2023-04-01T05:52:07.576Z,6.29
2023-04-01T05:54:34.389Z,6.19
2023-04-01T05:57:01.044Z,5.64
2023-04-01T05:59:28.755Z,4.99
2023-04-01T06:01:55.338Z,4.95
2023-04-01T06:04:23.451Z,4.68
2023-04-01T06:06:50.159Z,4.57
2023-04-01T06:09:20.947Z,4.46
2023-04-01T06:12:02.766Z,4.44
2023-04-01T06:14:39.009Z,4.48
2023-04-01T06:17:24.041Z,4.47
2023-04-01T06:20:07.733Z,4.82
2023-04-01T06:23:02.555Z,4.96
2023-04-01T06:25:59.635Z,5.03
2023-04-01T06:28:49.201Z,5.13
2023-04-01T06:31:48.207Z,4.99
2023-04-01T06:34:26.757Z,4.92
2023-04-01T06:37:11.775Z,5.19
2023-04-01T06:40:00.713Z,5.13
2023-04-01T06:42:47.318Z,4.97
2023-04-01T06:45:35.466Z,5.05
2023-04-01T06:48:05.403Z,4.51
2023-04-01T06:51:02.438Z,4.63
2023-04-01T06:53:57.330Z,4.26
2023-04-01T06:56:29.300Z,4.17
2023-04-01T06:59:05.167Z,3.44
2023-04-01T07:01:36.725Z,3.30
2023-04-01T07:04:16.088Z,3.14
2023-04-01T07:06:54.892Z,3.11
2023-04-01T07:09:32.408Z,3.14
2023-04-01T07:12:07.177Z,3.29
2023-04-01T07:14:38.388Z,3.60
2023-04-01T07:17:27.468Z,4.75
2023-04-01T07:20:01.896Z,4.28
2023-04-01T07:22:36.834Z,4.86
2023-04-01T07:25:13.145Z,4.30
2023-04-01T07:27:39.758Z,4.64
2023-04-01T07:30:17.164Z,4.90
2023-04-01T07:33:09.890Z,5.11
2023-04-01T07:35:48.717Z,5.50
2023-04-01T07:38:36.818Z,5.56
2023-04-01T07:41:10.462Z,5.54
2023-04-01T07:44:09.599Z,5.33
2023-04-01T07:46:39.013Z,5.48
2023-04-01T07:49:18.120Z,5.60
2023-04-01T07:52:10.057Z,5.75
2023-04-01T07:55:00.667Z,5.63
2023-04-01T07:57:56.406Z,5.73
2023-04-01T08:00:36.995Z,5.87
2023-04-01T08:03:24.677Z,6.32
2023-04-01T08:06:13.684Z,6.13
2023-04-01T08:09:01.824Z,6.35
2023-04-01T08:11:45.033Z,6.67
2023-04-01T08:14:38.223Z,6.58
2023-04-01T08:17:11.013Z,6.84
2023-04-01T08:20:01.880Z,6.41
2023-04-01T08:22:33.796Z,6.27
2023-04-01T08:25:08.566Z,6.61
2023-04-01T08:28:01.079Z,6.46
2023-04-01T08:30:38.372Z,6.59
2023-04-01T08:33:13.955Z,7.12
2023-04-01T08:35:52.606Z,6.70
2023-04-01T08:38:29.526Z,7.11
2023-04-01T08:41:14.582Z,6.99
2023-04-01T08:43:53.440Z,7.09
2023-04-01T08:46:43.561Z,7.29
2023-04-01T08:49:35.908Z,7.57
2023-04-01T08:52:08.341Z,7.70
2023-04-01T08:54:56.601Z,7.86
2023-04-01T08:57:26.321Z,7.55
2023-04-01T09:00:12.135Z,8.04
2023-04-01T09:03:00.250Z,8.31
2023-04-01T09:06:05.606Z,8.09
2023-04-01T09:08:51.815Z,8.14
2023-04-01T09:11:32.985Z,8.02
2023-04-01T09:14:23.611Z,8.38
2023-04-01T09:17:19.353Z,8.47
2023-04-01T09:20:16.860Z,7.53
2023-04-01T09:23:11.668Z,7.84
2023-04-01T09:26:00.059Z,7.21
2023-04-01T09:28:43.892Z,6.84
2023-04-01T09:31:49.129Z,6.30
2023-04-01T09:34:46.694Z,6.08
2023-04-01T09:37:40.329Z,5.93
2023-04-01T09:40:18.012Z,6.19
2023-04-01T09:43:11.860Z,6.88
2023-04-01T09:45:54.097Z,7.09
2023-04-01T09:48:26.376Z,7.54
2023-04-01T09:51:24.116Z,7.68
2023-04-01T09:54:05.672Z,7.43
2023-04-01T09:56:41.498Z,7.44
2023-04-01T09:59:11.031Z,7.86
2023-04-01T10:02:15.064Z,8.04
2023-04-01T10:04:59.096Z,8.46
2023-04-01T10:07:59.407Z,8.75
2023-04-01T10:11:00.034Z,9.09
2023-04-01T10:14:02.642Z,8.91
2023-04-01T10:16:48.510Z,8.86
2023-04-01T10:19:15.044Z,8.90
2023-04-01T10:22:19.354Z,9.03
2023-04-01T10:25:16.379Z,7.61
2023-04-01T10:28:39.813Z,7.85
2023-04-01T10:31:28.008Z,8.13
2023-04-01T10:34:19.568Z,7.61
2023-04-01T10:36:54.332Z,7.43
2023-04-01T10:40:10.418Z,6.85
2023-04-01T10:42:42.818Z,6.92
2023-04-01T10:45:43.360Z,7.11
2023-04-01T10:48:30.951Z,7.12
2023-04-01T10:51:35.224Z,6.98
2023-04-01T10:54:20.564Z,7.10
2023-04-01T10:56:58.012Z,6.81
2023-04-01T10:59:55.638Z,6.24
2023-04-01T11:02:40.982Z,6.19
2023-04-01T11:05:20.918Z,5.19
2023-04-01T11:08:15.715Z,4.97
2023-04-01T11:11:15.667Z,5.10
2023-04-01T11:14:08.215Z,5.13
2023-04-01T11:16:53.224Z,4.56
2023-04-01T11:19:39.501Z,3.11
2023-04-01T11:22:52.957Z,3.21
2023-04-01T11:25:34.865Z,3.41
2023-04-01T11:28:29.003Z,3.35
2023-04-01T11:31:30.251Z,3.60
2023-04-01T11:34:05.836Z,3.11
2023-04-01T11:37:03.806Z,3.20
2023-04-01T11:42:47.857Z,1.92
2023-04-01T11:45:51.745Z,3.09
2023-04-01T11:48:37.305Z,3.44
2023-04-01T11:51:19.040Z,1.87
2023-04-01T11:54:02.489Z,1.82
2023-04-01T11:56:39.204Z,1.73
2023-04-01T11:59:43.774Z,1.75
2023-04-01T12:02:44.085Z,1.80
2023-04-01T12:05:28.796Z,2.26
2023-04-01T12:08:32.334Z,3.40
2023-04-01T12:11:21.928Z,2.57
2023-04-01T12:14:00.320Z,2.98
2023-04-01T12:17:00.439Z,3.86
2023-04-01T12:19:26.988Z,4.99
2023-04-01T12:22:13.330Z,4.57
2023-04-01T12:24:47.121Z,5.86
2023-04-01T12:27:35.544Z,6.78
2023-04-01T12:30:20.732Z,7.21
2023-04-01T12:32:50.301Z,8.26
2023-04-01T12:35:25.815Z,7.76
2023-04-01T12:38:17.400Z,8.20
2023-04-01T12:40:59.310Z,9.12
2023-04-01T12:43:44.143Z,9.34
2023-04-01T12:46:29.976Z,9.62
2023-04-01T12:49:11.494Z,10.05
2023-04-01T12:52:00.594Z,10.49
2023-04-01T12:54:46.079Z,10.69
2023-04-01T12:57:42.863Z,10.98
2023-04-01T13:00:33.513Z,10.87
2023-04-01T13:03:47.394Z,11.33
2023-04-01T13:06:22.841Z,10.93
2023-04-01T13:09:52.279Z,11.20
2023-04-01T13:12:52.145Z,11.27
2023-04-01T13:15:30.051Z,10.55
2023-04-01T13:18:14.595Z,9.97
2023-04-01T13:20:46.398Z,9.38
2023-04-01T13:23:42.308Z,8.84
2023-04-01T13:26:33.447Z,7.56
2023-04-01T13:29:15.264Z,6.54
2023-04-01T13:32:14.889Z,6.28
2023-04-01T13:35:14.512Z,6.31
2023-04-01T13:38:09.377Z,6.45
2023-04-01T13:41:16.390Z,6.72
2023-04-01T13:43:56.230Z,6.45
2023-04-01T13:46:59.418Z,6.03
2023-04-01T13:49:42.460Z,5.31
2023-04-01T13:52:52.338Z,4.83
2023-04-01T13:55:45.886Z,4.78
2023-04-01T13:59:05.386Z,4.99
2023-04-01T14:02:29.413Z,4.50
2023-04-01T14:05:19.587Z,4.39
2023-04-01T14:08:22.464Z,4.55
2023-04-01T14:11:20.386Z,4.99
2023-04-01T14:14:06.688Z,5.84
2023-04-01T14:16:56.227Z,5.92
2023-04-01T14:19:41.270Z,6.36
2023-04-01T14:22:19.031Z,6.19
2023-04-01T14:25:01.666Z,6.54
2023-04-01T14:27:37.021Z,6.55
2023-04-01T14:30:42.171Z,6.38
2023-04-01T14:33:40.773Z,6.47
2023-04-01T14:36:22.401Z,5.76
2023-04-01T14:38:59.706Z,5.76
2023-04-01T14:42:06.046Z,5.27
2023-04-01T14:45:10.910Z,5.52
2023-04-01T14:47:57.111Z,5.53
2023-04-01T14:50:43.008Z,5.74
2023-04-01T14:53:25.237Z,6.08
2023-04-01T14:56:01.422Z,5.90
2023-04-01T14:59:00.468Z,6.06
2023-04-01T15:01:43.355Z,5.56
2023-04-01T15:04:30.433Z,6.34
2023-04-01T15:07:31.821Z,5.85
2023-04-01T15:10:01.394Z,6.27
2023-04-01T15:12:45.689Z,6.36
2023-04-01T15:15:42.173Z,6.25
2023-04-01T15:18:12.192Z,6.23
2023-04-01T15:20:57.462Z,5.88
2023-04-01T15:23:43.416Z,6.22
2023-04-01T15:26:52.771Z,6.14
2023-04-01T15:29:43.743Z,5.37
2023-04-01T15:32:29.993Z,5.21
2023-04-01T15:35:20.651Z,5.25
2023-04-01T15:38:16.394Z,5.22
2023-04-01T15:40:52.539Z,5.18
2023-04-01T15:43:54.701Z,5.44
2023-04-01T15:46:47.417Z,5.35
2023-04-01T15:49:48.238Z,5.41
2023-04-01T15:52:36.711Z,5.10
2023-04-01T15:55:27.523Z,5.31
2023-04-01T15:58:19.553Z,4.91
2023-04-01T16:01:10.310Z,4.49
2023-04-01T16:03:46.107Z,4.28
2023-04-01T16:06:31.309Z,4.62
2023-04-01T16:09:21.039Z,4.75
2023-04-01T16:12:10.764Z,4.76
2023-04-01T16:14:44.213Z,5.05
2023-04-01T16:17:58.821Z,5.08
2023-04-01T16:20:41.482Z,5.39
2023-04-01T16:23:21.645Z,5.31
2023-04-01T16:26:15.007Z,5.59
2023-04-01T16:28:55.702Z,6.15
2023-04-01T16:31:56.685Z,6.21
2023-04-01T16:34:44.473Z,5.91
2023-04-01T16:37:15.622Z,5.75
2023-04-01T16:40:06.203Z,5.85
2023-04-01T16:42:59.117Z,5.82
2023-04-01T16:45:28.463Z,6.06
2023-04-01T16:48:24.830Z,6.33
2023-04-01T16:51:05.587Z,5.87
2023-04-01T16:53:44.088Z,5.77
2023-04-01T16:56:24.056Z,5.96
2023-04-01T16:59:47.690Z,6.22
2023-04-01T17:02:19.636Z,6.55
2023-04-01T17:04:55.823Z,6.15
2023-04-01T17:07:32.447Z,5.61
2023-04-01T17:10:09.416Z,5.83
2023-04-01T17:12:57.046Z,5.37
2023-04-01T17:15:44.744Z,5.45
2023-04-01T17:18:36.950Z,5.32
2023-04-01T17:21:17.800Z,5.70
2023-04-01T17:24:06.916Z,5.33
2023-04-01T17:26:42.245Z,5.56
2023-04-01T17:29:52.979Z,5.15
2023-04-01T17:33:00.322Z,5.61
2023-04-01T17:35:36.228Z,6.58
2023-04-01T17:38:21.400Z,6.41
2023-04-01T17:41:04.973Z,6.09
2023-04-01T17:43:43.614Z,5.66
2023-04-01T17:46:48.585Z,5.65
2023-04-01T17:49:46.392Z,5.93
2023-04-01T17:52:24.478Z,5.79
2023-04-01T17:55:04.104Z,5.69
2023-04-01T17:57:49.271Z,5.81
2023-04-01T18:00:30.143Z,5.69
2023-04-01T18:03:14.316Z,6.20
2023-04-01T18:05:55.773Z,5.77
2023-04-01T18:08:38.001Z,5.88
2023-04-01T18:11:53.639Z,5.75
2023-04-01T18:15:02.989Z,5.71
2023-04-01T18:18:00.820Z,6.10
2023-04-01T18:21:08.183Z,5.85
2023-04-01T18:23:59.228Z,6.15
2023-04-01T18:26:38.075Z,6.47
2023-04-01T18:29:48.236Z,6.77
2023-04-01T18:32:30.019Z,7.00
2023-04-01T18:35:11.815Z,6.98
2023-04-01T18:38:03.289Z,7.30
2023-04-01T18:40:29.835Z,7.32
2023-04-01T18:43:20.573Z,7.09
2023-04-01T18:46:01.334Z,7.20
2023-04-01T18:49:08.352Z,6.85
2023-04-01T18:51:40.491Z,7.41
2023-04-01T18:54:14.773Z,7.34
2023-04-01T18:56:46.122Z,7.38
2023-04-01T18:59:31.086Z,7.76
2023-04-01T19:02:29.639Z,7.09
2023-04-01T19:05:17.940Z,7.08
2023-04-01T19:07:53.741Z,6.69
2023-04-01T19:10:23.953Z,7.19
2023-04-01T19:12:56.323Z,6.98
2023-04-01T19:15:32.199Z,6.88
2023-04-01T19:18:45.732Z,7.13
2023-04-01T19:21:23.885Z,6.43
2023-04-01T19:24:08.409Z,6.61
2023-04-01T19:27:05.008Z,6.69
2023-04-01T19:29:46.722Z,6.76
2023-04-01T19:32:36.310Z,6.74
2023-04-01T19:35:34.934Z,6.79
2023-04-01T19:38:36.021Z,6.70
2023-04-01T19:41:08.105Z,6.86
2023-04-01T19:43:51.405Z,6.66
2023-04-01T19:46:39.397Z,6.91
2023-04-01T19:49:30.917Z,7.15
2023-04-01T19:52:02.297Z,6.80
2023-04-01T19:54:32.046Z,6.97
2023-04-01T19:57:07.970Z,7.07
2023-04-01T19:59:50.516Z,7.53
2023-04-01T20:02:39.115Z,8.54
2023-04-01T20:05:29.133Z,8.68
2023-04-01T20:08:22.497Z,9.08
2023-04-01T20:10:59.077Z,9.33
2023-04-01T20:13:41.469Z,9.06
2023-04-01T20:16:12.049Z,9.97
2023-04-01T20:18:50.837Z,10.21
2023-04-01T20:21:37.578Z,10.22
2023-04-01T20:24:22.946Z,10.77
2023-04-01T20:27:01.326Z,10.31
2023-04-01T20:29:44.643Z,10.52
2023-04-01T20:33:05.744Z,10.56
2023-04-01T20:35:37.852Z,10.88
2023-04-01T20:38:39.679Z,10.89
2023-04-01T20:41:18.351Z,10.92
2023-04-01T20:44:12.102Z,11.09
2023-04-01T20:46:58.953Z,11.09
2023-04-01T20:49:37.438Z,11.16
2023-04-01T20:52:27.779Z,10.90
2023-04-01T20:55:24.481Z,10.81
2023-04-01T20:57:54.006Z,10.80
2023-04-01T21:00:36.094Z,10.96
2023-04-01T21:03:11.723Z,10.61
2023-04-01T21:05:57.010Z,10.66
2023-04-01T21:08:52.721Z,10.65
2023-04-01T21:11:25.935Z,10.91
2023-04-01T21:14:26.754Z,11.08
2023-04-01T21:17:10.196Z,10.11
2023-04-01T21:20:14.863Z,10.27
2023-04-01T21:23:20.776Z,10.24
2023-04-01T21:26:00.880Z,10.46
2023-04-01T21:28:36.943Z,9.61
2023-04-01T21:31:22.379Z,9.37
2023-04-01T21:34:36.841Z,9.39
2023-04-01T21:37:28.044Z,9.30
2023-04-01T21:40:12.903Z,9.07
2023-04-01T21:42:42.196Z,9.56
2023-04-01T21:45:14.705Z,9.74
2023-04-01T21:48:17.148Z,9.86
2023-04-01T21:51:14.448Z,9.82
2023-04-01T21:54:02.991Z,9.52
2023-04-01T21:56:52.783Z,9.89
2023-04-01T21:59:28.167Z,9.83
2023-04-01T22:02:13.998Z,9.69
2023-04-01T22:04:40.556Z,9.56
2023-04-01T22:07:18.582Z,9.90
2023-04-01T22:10:27.445Z,9.52
2023-04-01T22:13:18.409Z,10.03
2023-04-01T22:16:01.848Z,10.46
2023-04-01T22:18:34.995Z,10.40
2023-04-01T22:21:10.565Z,10.27
2023-04-01T22:24:08.708Z,9.83
2023-04-01T22:26:51.957Z,9.89
2023-04-01T22:29:28.055Z,10.03
2023-04-01T22:32:10.890Z,9.85
2023-04-01T22:35:03.496Z,10.57
2023-04-01T22:37:46.350Z,10.53
2023-04-01T22:40:34.193Z,10.78
2023-04-01T22:43:08.602Z,10.61
2023-04-01T22:45:35.760Z,11.03
2023-04-01T22:48:33.893Z,11.42
2023-04-01T22:51:18.833Z,11.37
2023-04-01T22:54:26.428Z,11.56
2023-04-01T22:57:05.991Z,11.69
2023-04-01T22:59:40.646Z,12.30
2023-04-01T23:02:36.810Z,12.72
2023-04-01T23:05:09.762Z,12.50
2023-04-01T23:07:51.369Z,12.47
2023-04-01T23:10:26.924Z,12.67
2023-04-01T23:12:59.180Z,12.92
2023-04-01T23:15:29.370Z,12.97
2023-04-01T23:18:08.038Z,12.71
2023-04-01T23:21:01.575Z,12.61
2023-04-01T23:23:38.268Z,13.40
2023-04-01T23:26:55.654Z,13.04
2023-04-01T23:29:23.789Z,13.12
2023-04-01T23:32:01.686Z,13.26
2023-04-01T23:34:33.732Z,13.38
2023-04-01T23:37:05.656Z,13.27
2023-04-01T23:39:38.876Z,13.34
2023-04-01T23:42:34.133Z,13.40
2023-04-01T23:45:05.636Z,14.07
2023-04-01T23:47:33.644Z,14.72
2023-04-01T23:50:17.383Z,14.26
2023-04-01T23:52:48.853Z,14.83
2023-04-01T23:55:23.933Z,14.64
2023-04-01T23:58:16.128Z,14.75
